Time;durP1;ratioP1;P1;durP2;ratioP2;P2;SDS_P1;SDS_P2;PMS_P1;PMS_P2;Temp;Humidity;BMP_temperature;BMP_pressure;BME280_temperature;BME280_humidity;BME280_pressure;Samples;Min_cycle;Max_cycle;Signal;HPM_P1;HPM_P2
2022/10/15 00:00:19;;;;;;;27.35;14.15;;;;;;;;;;4990567;28;20030;-68
2022/10/15 00:02:45;;;;;;;23.27;14.20;;;;;;;;;;4993125;28;20092;-67
2022/10/15 00:05:10;;;;;;;31.37;15.37;;;;;;;;;;4993843;28;20030;-68
2022/10/15 00:07:35;;;;;;;28.40;14.77;;;;;;;;;;4992972;28;20785;-68
2022/10/15 00:10:00;;;;;;;27.53;14.77;;;;;;;;;;4992484;28;20363;-68
2022/10/15 00:12:26;;;;;;;29.80;14.77;;;;;;;;;;4991445;28;20080;-69
2022/10/15 00:14:51;;;;;;;30.33;15.57;;;;;;;;;;4993149;28;20288;-68
2022/10/15 00:17:16;;;;;;;27.23;14.13;;;;;;;;;;4989455;28;20738;-67
2022/10/15 00:19:41;;;;;;;30.40;16.10;;;;;;;;;;4993983;28;20531;-68
2022/10/15 00:22:07;;;;;;;28.73;14.32;;;;;;;;;;4992662;28;20279;-67
2022/10/15 00:24:32;;;;;;;28.17;15.17;;;;;;;;;;4992534;28;20101;-68
2022/10/15 00:26:57;;;;;;;27.40;15.80;;;;;;;;;;4992951;28;20283;-68
2022/10/15 00:29:22;;;;;;;32.93;15.07;;;;;;;;;;4992901;28;20742;-68
2022/10/15 00:31:48;;;;;;;25.77;14.60;;;;;;;;;;4995346;28;20037;-68
2022/10/15 00:34:13;;;;;;;30.35;15.13;;;;;;;;;;4990429;28;20712;-68
2022/10/15 00:36:38;;;;;;;26.73;15.50;;;;;;;;;;4991829;28;20435;-68
2022/10/15 00:39:04;;;;;;;25.57;15.20;;;;;;;;;;4991606;28;20477;-68
2022/10/15 00:41:31;;;;;;;28.17;14.18;;;;;;;;;;4991141;28;20029;-67
2022/10/15 00:44:01;;;;;;;30.75;15.95;;;;;;;;;;4987845;28;20042;-68
2022/10/15 00:46:29;;;;;;;31.45;14.70;;;;;;;;;;4995974;28;20116;-68
2022/10/15 00:49:01;;;;;;;24.48;14.57;;;;;;;;;;4990439;28;20061;-68
2022/10/15 00:51:35;;;;;;;26.10;15.25;;;;;;;;;;4992393;28;20030;-68
2022/10/15 00:54:01;;;;;;;32.83;15.90;;;;;;;;;;4991111;28;20092;-68
2022/10/15 00:56:26;;;;;;;24.57;14.47;;;;;;;;;;4991175;28;20022;-68
2022/10/15 00:58:52;;;;;;;26.98;15.57;;;;;;;;;;4989520;28;20275;-67
2022/10/15 01:01:18;;;;;;;27.63;14.43;;;;;;;;;;4990632;28;20033;-68
2022/10/15 01:03:43;;;;;;;26.27;15.05;;;;;;;;;;4994232;28;20030;-67
2022/10/15 01:06:08;;;;;;;27.38;14.25;;;;;;;;;;4990939;28;20121;-68
2022/10/15 01:08:34;;;;;;;26.33;14.63;;;;;;;;;;4991169;28;20109;-68
2022/10/15 01:11:09;;;;;;;32.65;15.02;;;;;;;;;;4991966;28;20287;-68
2022/10/15 01:13:43;;;;;;;26.25;14.60;;;;;;;;;;4990283;28;20129;-68
2022/10/15 01:16:20;;;;;;;32.03;14.57;;;;;;;;;;4993509;28;20101;-68
2022/10/15 01:18:51;;;;;;;25.52;13.35;;;;;;;;;;4988340;28;20033;-68
2022/10/15 01:21:39;;;;;;;27.63;13.55;;;;;;;;;;4992935;28;20026;-69
2022/10/15 01:24:07;;;;;;;25.73;13.50;;;;;;;;;;4987965;28;20034;-68
2022/10/15 01:26:48;;;;;;;25.90;13.70;;;;;;;;;;4989086;28;20284;-68
2022/10/15 01:29:39;;;;;;;23.33;13.73;;;;;;;;;;4990541;28;20026;-68
2022/10/15 01:32:07;;;;;;;25.23;13.93;;;;;;;;;;4991307;28;20097;-67
2022/10/15 01:34:39;;;;;;;28.15;14.25;;;;;;;;;;4991889;28;20045;-68
2022/10/15 01:37:12;;;;;;;24.33;13.30;;;;;;;;;;4991032;28;20038;-68
2022/10/15 01:39:40;;;;;;;25.67;13.60;;;;;;;;;;4988672;28;20524;-68
2022/10/15 01:42:23;;;;;;;23.15;13.27;;;;;;;;;;4991586;28;20602;-67
2022/10/15 01:44:53;;;;;;;23.52;12.13;;;;;;;;;;4990010;28;20029;-68
2022/10/15 01:47:22;;;;;;;23.60;13.07;;;;;;;;;;4990433;28;20030;-68
2022/10/15 01:49:48;;;;;;;24.33;12.60;;;;;;;;;;4990898;28;20501;-68
2022/10/15 01:52:15;;;;;;;26.30;13.07;;;;;;;;;;4990798;28;20665;-68
2022/10/15 01:54:41;;;;;;;21.08;12.55;;;;;;;;;;4991958;28;20101;-69
2022/10/15 01:57:07;;;;;;;21.52;12.77;;;;;;;;;;4990730;28;20394;-69
2022/10/15 01:59:33;;;;;;;32.17;13.85;;;;;;;;;;4989790;28;20396;-69
2022/10/15 02:01:58;;;;;;;25.80;12.30;;;;;;;;;;4993768;28;20036;-69
2022/10/15 02:04:28;;;;;;;30.20;12.77;;;;;;;;;;4991291;28;20476;-69
2022/10/15 02:06:59;;;;;;;20.50;12.13;;;;;;;;;;4968300;28;20338;-69
2022/10/15 02:09:43;;;;;;;22.50;12.35;;;;;;;;;;4987733;28;20496;-69
2022/10/15 02:12:12;;;;;;;23.20;12.40;;;;;;;;;;4991037;28;20038;-69
2022/10/15 02:14:42;;;;;;;22.88;12.90;;;;;;;;;;5005407;28;20034;-68
2022/10/15 02:17:09;;;;;;;23.60;13.13;;;;;;;;;;4989264;28;20408;-69
2022/10/15 02:19:56;;;;;;;29.73;13.07;;;;;;;;;;4991124;28;20037;-68
2022/10/15 02:22:48;;;;;;;27.25;12.45;;;;;;;;;;4989298;28;20510;-69
2022/10/15 02:25:15;;;;;;;23.05;12.77;;;;;;;;;;4985322;28;20792;-68
2022/10/15 02:27:42;;;;;;;22.77;12.40;;;;;;;;;;4989756;28;20052;-67
2022/10/15 02:30:08;;;;;;;24.50;12.20;;;;;;;;;;4990623;28;20037;-68
2022/10/15 02:32:35;;;;;;;25.13;12.55;;;;;;;;;;4988925;28;20065;-69
2022/10/15 02:35:01;;;;;;;26.92;12.20;;;;;;;;;;4988079;28;20473;-68
2022/10/15 02:37:27;;;;;;;24.75;11.63;;;;;;;;;;4990057;28;20079;-67
2022/10/15 02:39:52;;;;;;;22.23;12.48;;;;;;;;;;4992104;28;20022;-68
2022/10/15 02:42:18;;;;;;;21.38;12.15;;;;;;;;;;4987769;28;20048;-67
2022/10/15 02:44:43;;;;;;;23.40;12.68;;;;;;;;;;4992622;28;20030;-68
2022/10/15 02:47:10;;;;;;;20.20;11.18;;;;;;;;;;4989515;28;20454;-68
2022/10/15 02:49:35;;;;;;;23.25;11.73;;;;;;;;;;4989696;28;20388;-68
2022/10/15 02:52:00;;;;;;;22.00;11.30;;;;;;;;;;4990125;28;20038;-69
2022/10/15 02:54:25;;;;;;;18.93;11.10;;;;;;;;;;4990333;28;20307;-68
2022/10/15 02:56:51;;;;;;;21.43;11.73;;;;;;;;;;4990859;28;20037;-68
2022/10/15 02:59:18;;;;;;;21.67;10.80;;;;;;;;;;4990252;28;20488;-68
2022/10/15 03:01:43;;;;;;;27.80;11.48;;;;;;;;;;5004423;28;20031;-67
2022/10/15 03:04:08;;;;;;;20.17;11.17;;;;;;;;;;5005303;28;20125;-68
2022/10/15 03:06:34;;;;;;;22.27;11.07;;;;;;;;;;4990677;28;20634;-68
2022/10/15 03:08:59;;;;;;;23.70;11.15;;;;;;;;;;4987748;28;20057;-68
2022/10/15 03:11:25;;;;;;;22.60;11.30;;;;;;;;;;4987442;28;20085;-69
2022/10/15 03:13:50;;;;;;;25.90;11.70;;;;;;;;;;4989040;28;20034;-68
2022/10/15 03:16:15;;;;;;;19.67;10.93;;;;;;;;;;4988689;28;20042;-69
2022/10/15 03:18:40;;;;;;;21.13;11.00;;;;;;;;;;4995178;28;20641;-68
2022/10/15 03:21:06;;;;;;;17.93;11.10;;;;;;;;;;4992693;28;20034;-69
2022/10/15 03:23:31;;;;;;;25.77;11.60;;;;;;;;;;4989635;28;20112;-68
2022/10/15 03:25:56;;;;;;;19.35;10.95;;;;;;;;;;4989929;28;20042;-68
2022/10/15 03:28:22;;;;;;;21.43;11.83;;;;;;;;;;4987572;28;20129;-69
2022/10/15 03:30:47;;;;;;;24.65;12.15;;;;;;;;;;4989626;28;20280;-68
2022/10/15 03:33:12;;;;;;;22.48;10.65;;;;;;;;;;4989534;28;20026;-68
2022/10/15 03:35:38;;;;;;;18.83;10.17;;;;;;;;;;4991630;28;20046;-68
2022/10/15 03:38:04;;;;;;;22.38;10.57;;;;;;;;;;4992379;28;20066;-68
2022/10/15 03:40:29;;;;;;;20.30;11.15;;;;;;;;;;4993793;28;20033;-69
2022/10/15 03:42:55;;;;;;;24.50;11.97;;;;;;;;;;4995051;28;20107;-68
2022/10/15 03:45:20;;;;;;;18.95;10.20;;;;;;;;;;4993846;28;20629;-68
2022/10/15 03:47:46;;;;;;;24.50;10.88;;;;;;;;;;4991009;28;20127;-69
2022/10/15 03:50:11;;;;;;;25.88;14.68;;;;;;;;;;5008508;28;20587;-69
2022/10/15 03:52:36;;;;;;;25.33;11.73;;;;;;;;;;4991963;28;20487;-68
2022/10/15 03:55:02;;;;;;;19.93;10.87;;;;;;;;;;4991516;28;20042;-68
2022/10/15 03:57:27;;;;;;;19.02;9.80;;;;;;;;;;4993778;28;20309;-68
2022/10/15 03:59:52;;;;;;;25.33;11.05;;;;;;;;;;4991671;28;20054;-68
2022/10/15 04:02:18;;;;;;;16.33;9.93;;;;;;;;;;4992138;28;20034;-68
2022/10/15 04:04:43;;;;;;;19.97;10.33;;;;;;;;;;4989960;28;20026;-69
2022/10/15 04:07:08;;;;;;;16.77;9.97;;;;;;;;;;4990276;28;20121;-69
2022/10/15 04:09:33;;;;;;;19.30;9.97;;;;;;;;;;4992418;28;20117;-70
2022/10/15 04:11:59;;;;;;;20.17;9.75;;;;;;;8.02;nan;100920.03;4991698;28;20461;-68
2022/10/15 04:14:24;;;;;;;19.95;10.57;;;;;;;;;;4994020;28;20104;-69
2022/10/15 04:16:49;;;;;;;23.00;10.38;;;;;;;;;;4992783;28;20046;-67
2022/10/15 04:19:15;;;;;;;18.15;9.65;;;;;;;;;;4993356;28;20113;-66
2022/10/15 04:21:40;;;;;;;22.48;10.23;;;;;;;;;;4991176;28;20133;-68
2022/10/15 04:24:05;;;;;;;24.17;10.50;;;;;;;;;;4991925;28;20037;-68
2022/10/15 04:26:31;;;;;;;23.53;10.57;;;;;;;;;;5010116;28;20412;-68
2022/10/15 04:28:56;;;;;;;26.87;11.93;;;;;;;;;;4991403;28;20346;-67
2022/10/15 04:31:21;;;;;;;28.30;10.67;;;;;;;;;;4985770;28;20769;-68
2022/10/15 04:33:47;;;;;;;24.67;10.23;;;;;;;;;;5005271;28;20067;-70
2022/10/15 04:36:12;;;;;;;21.40;11.25;;;;;;;;;;5005622;28;20284;-67
2022/10/15 04:38:38;;;;;;;21.52;10.75;;;;;;;;;;4991679;28;20560;-70
2022/10/15 04:41:12;;;;;;;28.17;10.43;;;;;;;;;;4989787;28;20407;-68
2022/10/15 04:43:38;;;;;;;16.98;10.05;;;;;;;;;;5004386;28;20026;-68
2022/10/15 04:46:04;;;;;;;20.80;11.73;;;;;;;;;;4988017;28;20032;-69
2022/10/15 04:48:30;;;;;;;22.65;10.30;;;;;;;;;;5008010;28;20444;-67
2022/10/15 04:51:02;;;;;;;20.10;9.70;;;;;;;;;;4991032;28;20022;-69
2022/10/15 04:53:29;;;;;;;20.23;10.05;;;;;;;;;;4988649;28;20018;-69
2022/10/15 04:55:58;;;;;;;19.95;9.95;;;;;;;;;;4994178;28;20042;-68
2022/10/15 04:58:23;;;;;;;21.13;10.75;;;;;;;;;;4989741;28;20027;-68
2022/10/15 05:00:48;;;;;;;23.00;11.00;;;;;;;;;;4991641;28;20048;-68
2022/10/15 05:03:14;;;;;;;26.07;11.30;;;;;;;;;;4989336;28;20054;-68
2022/10/15 05:05:39;;;;;;;24.23;11.05;;;;;;;;;;5007952;28;20311;-68
2022/10/15 05:08:04;;;;;;;23.10;10.87;;;;;;;;;;4992407;28;20026;-67
2022/10/15 05:10:30;;;;;;;23.05;12.65;;;;;;;;;;4993481;28;20291;-68
2022/10/15 05:12:55;;;;;;;22.88;11.85;;;;;;;;;;4992365;28;20029;-68
2022/10/15 05:15:21;;;;;;;24.77;11.27;;;;;;;;;;4992359;28;20527;-68
2022/10/15 05:17:46;;;;;;;24.92;11.77;;;;;;;;;;4991591;28;20043;-68
2022/10/15 05:20:11;;;;;;;28.20;11.40;;;;;;;;;;5005596;28;20078;-69
2022/10/15 05:22:37;;;;;;;26.95;10.50;;;;;;;;;;5008744;28;20287;-69
2022/10/15 05:25:02;;;;;;;27.53;10.60;;;;;;;;;;4994455;28;20392;-69
2022/10/15 05:27:27;;;;;;;28.02;11.35;;;;;;;;;;4992619;28;20523;-70
2022/10/15 05:29:52;;;;;;;27.00;10.73;;;;;;;;;;4989558;28;20084;-69
2022/10/15 05:32:17;;;;;;;23.27;11.03;;;;;;;;;;4992603;28;20038;-69
2022/10/15 05:34:43;;;;;;;22.47;11.77;;;;;;;;;;4991157;28;20409;-69
2022/10/15 05:37:08;;;;;;;22.53;10.70;;;;;;;;;;4989045;28;20070;-68
2022/10/15 05:39:33;;;;;;;23.00;10.33;;;;;;;;;;4991114;28;20034;-69
2022/10/15 05:41:58;;;;;;;20.97;10.87;;;;;;;;;;4995937;28;20077;-69
2022/10/15 05:44:24;;;;;;;19.90;11.23;;;;;;;;;;4987921;28;20290;-68
2022/10/15 05:46:49;;;;;;;26.43;11.10;;;;;;;;;;4991330;28;20819;-69
2022/10/15 05:49:14;;;;;;;27.20;11.63;;;;;;;;;;4986889;28;20472;-68
2022/10/15 05:51:39;;;;;;;22.00;11.17;;;;;;;;;;4984698;28;20315;-69
2022/10/15 05:54:04;;;;;;;27.93;11.03;;;;;;;;;;4984595;28;20292;-69
2022/10/15 05:56:30;;;;;;;22.13;10.40;;;;;;;;;;4990232;28;20026;-70
2022/10/15 05:58:56;;;;;;;21.83;10.37;;;;;;;;;;4991608;28;20385;-69
2022/10/15 06:01:22;;;;;;;23.33;10.60;;;;;;;;;;4987048;28;20045;-68
2022/10/15 06:03:47;;;;;;;23.27;10.27;;;;;;;;;;4990773;28;20026;-68
2022/10/15 06:06:23;;;;;;;23.60;10.98;;;;;;;;;;5007603;28;20469;-69
2022/10/15 06:08:48;;;;;;;23.30;11.63;;;;;;;;;;4986494;28;20065;-69
2022/10/15 06:11:14;;;;;;;20.65;10.90;;;;;;;;;;4991196;28;20041;-69
2022/10/15 06:13:40;;;;;;;27.88;10.73;;;;;;;;;;4990790;28;20029;-68
2022/10/15 06:16:05;;;;;;;25.67;10.70;;;;;;;;;;4987693;28;20436;-67
2022/10/15 06:18:31;;;;;;;24.98;11.60;;;;;;;;;;4991387;28;20101;-68
2022/10/15 06:20:56;;;;;;;22.55;11.90;;;;;;;;;;4991925;28;20535;-68
2022/10/15 06:23:23;;;;;;;24.02;10.60;;;;;;;;;;4991514;28;20029;-67
2022/10/15 06:25:48;;;;;;;21.63;11.27;;;;;;;;;;4990738;28;20489;-68
2022/10/15 06:28:13;;;;;;;20.10;11.15;;;;;;;;;;4991834;28;20045;-67
2022/10/15 06:30:39;;;;;;;21.37;12.20;;;;;;;;;;4991011;28;20035;-67
2022/10/15 06:33:04;;;;;;;24.53;11.63;;;;;;;;;;4990959;28;20104;-66
2022/10/15 06:35:32;;;;;;;21.80;10.90;;;;;;;;;;4992115;28;20282;-67
2022/10/15 06:37:59;;;;;;;25.25;11.20;;;;;;;;;;4988305;28;20272;-70
2022/10/15 06:40:24;;;;;;;29.50;12.07;;;;;;;;;;4990288;28;20038;-66
2022/10/15 06:42:49;;;;;;;32.17;12.73;;;;;;;;;;4987172;28;20069;-68
2022/10/15 06:45:14;;;;;;;22.50;11.85;;;;;;;;;;4991754;28;20921;-67
2022/10/15 06:47:40;;;;;;;27.63;12.37;;;;;;;;;;4988964;28;20042;-68
2022/10/15 06:50:06;;;;;;;26.00;12.15;;;;;;;;;;4989659;28;20400;-69
2022/10/15 06:52:32;;;;;;;23.33;12.35;;;;;;;;;;4990357;28;20034;-68
2022/10/15 06:54:57;;;;;;;21.10;12.63;;;;;;;;;;4992132;28;20105;-68
2022/10/15 06:57:24;;;;;;;28.17;11.98;;;;;;;;;;4990820;28;20033;-69
2022/10/15 06:59:50;;;;;;;24.10;11.50;;;;;;;;;;4985923;28;20039;-68
2022/10/15 07:02:16;;;;;;;28.05;11.68;;;;;;;;;;4986764;28;20096;-69
2022/10/15 07:04:41;;;;;;;27.40;11.40;;;;;;;;;;4991343;28;20026;-69
2022/10/15 07:07:07;;;;;;;19.80;11.55;;;;;;;;;;4990831;28;20435;-69
2022/10/15 07:09:34;;;;;;;21.43;11.70;;;;;;;;;;4993940;28;20022;-69
2022/10/15 07:11:59;;;;;;;23.92;11.95;;;;;;;;;;4993438;28;20022;-69
2022/10/15 07:14:24;;;;;;;23.95;12.63;;;;;;;;;;4991474;28;20034;-69
2022/10/15 07:16:49;;;;;;;25.57;12.43;;;;;;;;;;4994532;28;20046;-69
2022/10/15 07:19:15;;;;;;;30.90;12.57;;;;;;;;;;4994923;28;20729;-69
2022/10/15 07:21:40;;;;;;;36.20;11.73;;;;;;;;;;4993161;28;20292;-69
2022/10/15 07:24:05;;;;;;;27.70;11.10;;;;;;;;;;4994314;28;20030;-69
2022/10/15 07:26:31;;;;;;;27.25;11.25;;;;;;;;;;4994963;28;20026;-69
2022/10/15 07:28:56;;;;;;;24.65;11.43;;;;;;;;;;4993778;28;20030;-69
2022/10/15 07:31:22;;;;;;;23.52;10.65;;;;;;;;;;4994049;28;20044;-69
2022/10/15 07:33:47;;;;;;;29.45;11.43;;;;;;;;;;4994090;28;20031;-69
2022/10/15 07:36:12;;;;;;;30.70;12.43;;;;;;;;;;4993729;28;20045;-69
2022/10/15 07:38:40;;;;;;;24.60;11.00;;;;;;;;;;4993847;28;20830;-69
2022/10/15 07:41:06;;;;;;;24.08;11.60;;;;;;;;;;4993539;28;20046;-70
2022/10/15 07:43:32;;;;;;;20.55;10.98;;;;;;;;;;4994586;28;20108;-69
2022/10/15 07:45:57;;;;;;;22.20;10.57;;;;;;;;;;4993958;28;20041;-69
2022/10/15 07:48:23;;;;;;;24.77;10.20;;;;;;;;;;4994721;28;20030;-69
2022/10/15 07:50:59;;;;;;;19.10;10.75;;;;;;;;;;4994139;28;20283;-69
2022/10/15 07:53:24;;;;;;;17.73;10.23;;;;;;;;;;4994205;28;20030;-69
2022/10/15 07:55:50;;;;;;;19.77;11.00;;;;;;;;;;4993478;28;20046;-69
2022/10/15 07:58:15;;;;;;;17.17;9.93;;;;;;;;;;4974292;28;20027;-69
2022/10/15 08:00:40;;;;;;;18.70;9.30;;;;;;;;;;4992719;28;20283;-69
2022/10/15 08:03:05;;;;;;;15.37;8.80;;;;;;;12.55;nan;101011.22;4993367;28;20484;-69
2022/10/15 08:05:31;;;;;;;15.40;9.30;;;;;;;;;;4992706;28;20271;-69
2022/10/15 08:07:57;;;;;;;15.32;9.60;;;;;;;;;;4989782;28;20022;-69
2022/10/15 08:10:22;;;;;;;15.85;9.60;;;;;;;;;;4993890;28;20106;-69
2022/10/15 08:12:47;;;;;;;18.17;8.67;;;;;;;;;;4993375;28;20027;-69
2022/10/15 08:15:12;;;;;;;19.13;9.25;;;;;;;;;;4993790;28;20033;-68
2022/10/15 08:17:38;;;;;;;15.60;9.60;;;;;;;;;;4993173;28;20061;-69
2022/10/15 08:20:03;;;;;;;14.87;8.47;;;;;;;;;;4993429;28;20367;-69
2022/10/15 08:22:28;;;;;;;13.63;9.07;;;;;;;;;;4993848;28;20105;-69
2022/10/15 08:24:54;;;;;;;15.20;9.25;;;;;;;;;;4993543;28;20431;-69
2022/10/15 08:27:19;;;;;;;18.20;8.77;;;;;;;;;;4993371;28;20472;-68
2022/10/15 08:29:45;;;;;;;14.93;8.90;;;;;;;;;;4993609;28;20030;-69
2022/10/15 08:32:11;;;;;;;16.83;8.77;;;;;;;;;;4994033;28;20355;-69
2022/10/15 08:34:36;;;;;;;15.13;8.73;;;;;;;;;;4992612;28;20105;-69
2022/10/15 08:37:02;;;;;;;11.57;8.33;;;;;;;;;;4996014;28;20499;-69
2022/10/15 08:39:27;;;;;;;13.85;9.10;;;;;;;;;;4992657;28;20427;-68
2022/10/15 08:41:53;;;;;;;16.90;8.83;;;;;;;;;;4992628;28;20033;-69
2022/10/15 08:44:27;;;;;;;12.88;8.45;;;;;;;;;;4990184;28;20034;-68
2022/10/15 08:47:00;;;;;;;18.52;9.35;;;;;;;;;;5004998;28;20034;-68
2022/10/15 08:49:44;;;;;;;13.70;9.10;;;;;;;;;;4993397;28;20022;-68
2022/10/15 08:52:17;;;;;;;15.25;9.00;;;;;;;;;;4994584;28;20080;-68
2022/10/15 08:54:43;;;;;;;12.18;8.00;;;;;;;;;;4992580;28;20030;-69
2022/10/15 08:57:28;;;;;;;13.30;8.35;;;;;;;;;;4990182;28;20164;-62
2022/10/15 08:59:59;;;;;;;13.15;7.40;;;;;;;;;;4987314;28;20038;-64
2022/10/15 09:02:29;;;;;;;12.07;7.32;;;;;;;;;;4991744;28;20037;-66
2022/10/15 09:05:05;;;;;;;15.98;7.60;;;;;;;;;;4992089;28;20030;-66
2022/10/15 09:07:41;;;;;;;12.18;7.35;;;;;;;15.47;nan;100992.78;4991914;28;20026;-66
2022/10/15 09:10:09;;;;;;;12.15;7.47;;;;;;;;;;4990986;28;20026;-67
2022/10/15 09:12:53;;;;;;;13.82;7.10;;;;;;;;;;4989698;28;20038;-67
2022/10/15 09:15:20;;;;;;;12.15;7.07;;;;;;;;;;4989139;28;20042;-66
2022/10/15 09:17:48;;;;;;;14.75;7.15;;;;;;;;;;4990504;28;20046;-67
2022/10/15 09:20:18;;;;;;;12.43;7.18;;;;;;;;;;4994938;28;20023;-67
2022/10/15 09:22:44;;;;;;;13.23;7.47;;;;;;;;;;4993932;28;20029;-66
2022/10/15 09:25:13;;;;;;;11.88;7.53;;;;;;;;;;4990631;28;20022;-67
2022/10/15 09:27:39;;;;;;;;;;;;;;;;;;4990622;28;20042;-66
2022/10/15 09:30:04;;;;;;;14.47;7.83;;;;;;;;;;4993028;28;19952;-64
2022/10/15 09:32:39;;;;;;;11.70;7.25;;;;;;;;;;4990972;28;20057;-65
2022/10/15 09:35:13;;;;;;;11.15;6.78;;;;;;;;;;5004949;28;20026;-64
2022/10/15 09:37:51;;;;;;;14.13;6.50;;;;;;;;;;4987706;28;20494;-67
2022/10/15 09:40:32;;;;;;;9.65;6.53;;;;;;;;;;4990158;28;20161;-65
2022/10/15 09:42:59;;;;;;;9.40;5.28;;;;;;;;;;4989141;28;20090;-65
2022/10/15 09:45:24;;;;;;;10.10;6.10;;;;;;;;;;4987571;28;20030;-67
2022/10/15 09:47:49;;;;;;;13.15;7.35;;;;;;;;;;4989997;28;20030;-64
2022/10/15 09:50:15;;;;;;;9.38;6.00;;;;;;;;;;4996638;28;20030;-66
2022/10/15 09:52:48;;;;;;;8.40;5.73;;;;;;;;;;4992647;28;20100;-66
2022/10/15 09:55:16;;;;;;;11.07;5.13;;;;;;;;;;4988897;28;20362;-64
2022/10/15 09:57:45;;;;;;;9.50;5.03;;;;;;;;;;4989742;28;20516;-64
2022/10/15 10:00:12;;;;;;;10.52;5.75;;;;;;;;;;4990116;28;20030;-66
2022/10/15 10:02:37;;;;;;;10.35;5.35;;;;;;;;;;4988067;28;20045;-65
2022/10/15 10:05:27;;;;;;;7.90;5.18;;;;;;;17.34;nan;100982.94;4994114;28;20116;-66
2022/10/15 10:08:06;;;;;;;9.27;5.20;;;;;;;;;;4987845;28;20034;-66
2022/10/15 10:10:31;;;;;;;7.82;5.07;;;;;;;;;;4990891;28;20034;-64
2022/10/15 10:12:57;;;;;;;9.55;5.35;;;;;;;;;;4991553;28;20464;-65
2022/10/15 10:15:40;;;;;;;7.60;5.07;;;;;;;;;;4988609;28;20431;-66
2022/10/15 10:18:16;;;;;;;14.27;5.78;;;;;;;;;;4989633;28;20079;-65
2022/10/15 10:20:51;;;;;;;8.55;5.07;;;;;;;;;;4992144;28;20077;-64
2022/10/15 10:23:20;;;;;;;8.75;5.28;;;;;;;;;;4990231;28;20041;-66
2022/10/15 10:25:46;;;;;;;10.20;4.85;;;;;;;;;;4992063;28;20550;-67
2022/10/15 10:28:12;;;;;;;9.50;5.07;;;;;;;;;;4989993;28;20040;-67
2022/10/15 10:30:55;;;;;;;10.33;5.07;;;;;;;17.89;nan;100943.63;4991335;28;20034;-66
2022/10/15 10:33:27;;;;;;;7.28;4.85;;;;;;;;;;4990386;28;20415;-66
2022/10/15 10:35:53;;;;;;;9.07;5.32;;;;;;;;;;4988431;28;20392;-66
2022/10/15 10:38:19;;;;;;;9.75;4.95;;;;;;;;;;4989152;28;20042;-66
2022/10/15 10:40:48;;;;;;;10.25;4.90;;;;;;;;;;4990690;28;20026;-66
2022/10/15 10:43:16;;;;;;;9.95;4.65;;;;;;;;;;4988817;28;20022;-66
2022/10/15 10:46:02;;;;;;;7.35;4.50;;;;;;;;;;4989416;28;20026;-66
2022/10/15 10:48:50;;;;;;;8.38;4.40;;;;;;;;;;5004990;28;20038;-66
2022/10/15 10:51:16;;;;;;;6.90;4.60;;;;;;;;;;4985924;28;20039;-66
2022/10/15 10:53:53;;;;;;;8.03;4.63;;;;;;;;;;4989848;28;20042;-66
2022/10/15 10:56:23;;;;;;;10.68;5.00;;;;;;;;;;4988952;28;20030;-66
2022/10/15 10:58:54;;;;;;;12.40;4.80;;;;;;;;;;4990882;28;20043;-66
2022/10/15 11:01:19;;;;;;;14.15;5.65;;;;;;;;;;4991158;28;20357;-67
2022/10/15 11:03:45;;;;;;;12.87;5.70;;;;;;;18.77;nan;100898.22;4988937;28;20037;-66
2022/10/15 11:06:30;;;;;;;9.23;5.30;;;;;;;18.87;nan;100900.09;5005254;28;20680;-66
2022/10/15 11:09:14;;;;;;;13.07;5.18;;;;;;;18.91;nan;100893.94;4987231;28;20476;-66
2022/10/15 11:11:58;;;;;;;7.82;4.93;;;;;;;18.90;nan;100881.66;4990914;28;20034;-65
2022/10/15 11:14:41;;;;;;;7.32;4.35;;;;;;;;;;4990893;28;20038;-66
2022/10/15 11:17:15;;;;;;;17.38;7.35;;;;;;;18.92;nan;100878.72;4987216;28;20042;-67
2022/10/15 11:19:49;;;;;;;11.82;5.65;;;;;;;18.86;nan;100906.47;4986654;28;20026;-65
2022/10/15 11:22:17;;;;;;;6.25;4.85;;;;;;;;;;4989684;28;20126;-67
2022/10/15 11:24:48;;;;;;;9.20;5.30;;;;;;;;;;4991630;28;20026;-66
2022/10/15 11:27:23;;;;;;;9.32;4.53;;;;;;;18.81;nan;100850.44;5002733;28;20030;-67
2022/10/15 11:30:01;;;;;;;7.95;4.35;;;;;;;18.86;nan;100864.56;4991764;28;20034;-65
2022/10/15 11:32:41;;;;;;;17.65;7.75;;;;;;;19.09;nan;100883.78;4985147;28;20034;-65
2022/10/15 11:35:35;;;;;;;9.95;5.88;;;;;;;19.15;nan;100868.53;4988496;28;20117;-65
2022/10/15 11:38:16;;;;;;;7.85;4.75;;;;;;;19.21;nan;100873.59;4989545;28;20045;-65
2022/10/15 11:41:14;;;;;;;6.85;4.50;;;;;;;19.27;nan;100877.84;4989167;28;20026;-67
2022/10/15 11:44:03;;;;;;;7.45;4.18;;;;;;;19.32;nan;100848.47;4986898;28;20018;-65
2022/10/15 11:46:45;;;;;;;8.88;4.40;;;;;;;19.37;nan;100855.69;4986793;28;20149;-65
2022/10/15 11:49:32;;;;;;;6.20;4.00;;;;;;;19.46;nan;100848.69;4989369;28;20031;-67
2022/10/15 11:52:05;;;;;;;8.90;4.00;;;;;;;19.53;nan;100867.09;4990209;28;20054;-67
2022/10/15 11:54:40;;;;;;;7.72;3.95;;;;;;;19.54;nan;100842.00;4988314;28;20439;-65
2022/10/15 11:57:10;;;;;;;7.25;4.13;;;;;;;19.57;nan;100827.28;4994116;28;20027;-65
2022/10/15 11:59:59;;;;;;;9.55;4.93;;;;;;;19.57;nan;100846.78;4992997;28;20061;-65
2022/10/15 12:02:36;;;;;;;24.90;11.73;;;;;;;19.60;nan;100861.47;4994260;28;20032;-65
2022/10/15 12:05:17;;;;;;;13.35;6.65;;;;;;;19.61;nan;100847.00;5009880;28;20026;-65
2022/10/15 12:07:45;;;;;;;10.68;5.15;;;;;;;19.70;nan;100834.72;4992999;28;20026;-66
2022/10/15 12:10:11;;;;;;;8.38;4.13;;;;;;;19.74;nan;100847.25;4991864;28;20030;-66
2022/10/15 12:12:39;;;;;;;7.72;4.13;;;;;;;;;;4993396;28;20503;-65
2022/10/15 12:15:19;;;;;;;8.95;4.07;;;;;;;;;;5009791;28;20034;-65
2022/10/15 12:17:53;;;;;;;;;;;;;;;19.88;nan;100841.31;5008597;28;20129;-65
2022/10/15 12:20:21;;;;;;;6.10;3.67;;;;;;;19.81;nan;100857.66;4991984;28;19917;-64
2022/10/15 12:22:46;;;;;;;5.38;3.70;;;;;;;;;;4995943;28;20503;-66
2022/10/15 12:25:33;;;;;;;6.63;3.90;;;;;;;19.99;nan;100842.84;4992470;28;20033;-67
2022/10/15 12:28:11;;;;;;;7.05;4.65;;;;;;;19.93;nan;100827.91;4994061;28;20046;-66
2022/10/15 12:30:39;;;;;;;8.07;3.33;;;;;;;20.01;nan;100816.63;5007738;28;20033;-67
2022/10/15 12:33:22;;;;;;;6.18;3.28;;;;;;;20.06;nan;100829.94;4994379;28;20077;-67
2022/10/15 12:36:04;;;;;;;8.50;3.63;;;;;;;20.12;nan;100841.44;4990357;28;20413;-67
2022/10/15 12:38:33;;;;;;;6.53;3.75;;;;;;;20.15;nan;100822.94;4993426;28;20050;-66
2022/10/15 12:41:09;;;;;;;5.55;3.33;;;;;;;20.17;nan;100826.16;4991217;28;20045;-68
2022/10/15 12:43:42;;;;;;;7.43;3.08;;;;;;;20.10;nan;100816.84;4990423;28;20030;-68
2022/10/15 12:46:09;;;;;;;4.15;2.97;;;;;;;20.12;nan;100807.47;4990622;28;20090;-68
2022/10/15 12:48:44;;;;;;;5.63;3.38;;;;;;;20.16;nan;100805.00;4991997;28;20026;-67
2022/10/15 12:51:15;;;;;;;6.57;3.40;;;;;;;20.17;nan;100828.81;4992302;28;20400;-67
2022/10/15 12:53:42;;;;;;;5.65;3.45;;;;;;;20.11;nan;100818.44;4992795;28;20062;-68
2022/10/15 12:56:14;;;;;;;3.88;3.10;;;;;;;19.97;nan;100815.59;4992348;28;20064;-66
2022/10/15 12:58:40;;;;;;;7.22;3.17;;;;;;;;;;4993337;28;20037;-66
2022/10/15 13:01:08;;;;;;;4.25;2.88;;;;;;;20.11;nan;100803.22;4991071;28;20030;-65
2022/10/15 13:03:35;;;;;;;4.88;2.90;;;;;;;;;;4991659;28;20045;-67
2022/10/15 13:06:19;;;;;;;5.57;3.28;;;;;;;20.22;nan;100803.13;4992848;28;20034;-67
2022/10/15 13:08:49;;;;;;;4.40;3.45;;;;;;;20.25;nan;100798.00;4987792;28;20067;-68
2022/10/15 13:11:20;;;;;;;7.13;3.53;;;;;;;20.30;nan;100810.53;4984149;28;20814;-69
2022/10/15 13:13:45;;;;;;;5.95;3.38;;;;;;;20.27;nan;100757.63;4993608;28;20057;-68
2022/10/15 13:16:13;;;;;;;4.88;3.15;;;;;;;20.25;nan;100848.81;4990641;28;20085;-68
2022/10/15 13:18:41;;;;;;;5.13;3.25;;;;;;;20.30;nan;100794.50;4992835;28;20109;-68
2022/10/15 13:21:07;;;;;;;5.78;3.30;;;;;;;20.32;nan;100813.72;4992693;28;20057;-68
2022/10/15 13:23:33;;;;;;;6.20;3.20;;;;;;;20.31;nan;100804.91;4992711;28;20080;-68
2022/10/15 13:26:26;;;;;;;7.47;4.30;;;;;;;20.30;nan;100816.69;4991002;28;20041;-68
2022/10/15 13:28:55;;;;;;;7.45;3.90;;;;;;;20.18;nan;100809.03;4990246;28;20049;-69
2022/10/15 13:31:26;;;;;;;5.10;3.60;;;;;;;20.12;nan;100817.38;4992348;28;20480;-68
2022/10/15 13:33:54;;;;;;;7.30;4.07;;;;;;;20.06;nan;100867.38;4992699;28;20030;-70
2022/10/15 13:36:26;;;;;;;8.50;3.55;;;;;;;20.01;nan;100760.50;4992527;28;20022;-68
2022/10/15 13:39:00;;;;;;;16.17;7.72;;;;;;;20.04;nan;100804.56;4988898;28;20392;-68
2022/10/15 13:41:29;;;;;;;12.68;6.40;;;;;;;20.06;nan;100797.06;4993305;28;20026;-68
2022/10/15 13:43:57;;;;;;;8.43;4.00;;;;;;;20.06;nan;100799.75;5008037;28;20022;-69
2022/10/15 13:46:29;;;;;;;5.28;3.55;;;;;;;20.05;nan;100798.97;4991168;28;20026;-68
2022/10/15 13:49:08;;;;;;;6.95;3.97;;;;;;;20.01;nan;100792.56;4989500;28;20613;-68
2022/10/15 13:51:38;;;;;;;7.38;4.05;;;;;;;19.94;nan;100808.13;4992407;28;20106;-68
2022/10/15 13:54:09;;;;;;;5.90;3.97;;;;;;;19.86;nan;100790.81;5007225;28;20030;-68
2022/10/15 13:56:35;;;;;;;5.32;3.88;;;;;;;19.75;nan;100794.59;4995422;28;20022;-68